sensor_id;sensor_type;location;lat;lon;timestamp;temperature;humidity
74484;SHT31;62942;52.462;10.846;2023-04-03T00:00:32;-1.3;85.8
74484;SHT31;62942;52.462;10.846;2023-04-03T00:01:32;-1.3;85.9
74484;SHT31;62942;52.462;10.846;2023-04-03T00:02:42;-1.3;86.2
74484;SHT31;62942;52.462;10.846;2023-04-03T00:03:42;-1.3;86.4
74484;SHT31;62942;52.462;10.846;2023-04-03T00:04:52;-1.2;86.4
74484;SHT31;62942;52.462;10.846;2023-04-03T00:06:02;-1.2;86.3
74484;SHT31;62942;52.462;10.846;2023-04-03T00:07:02;-1.2;86.2
74484;SHT31;62942;52.462;10.846;2023-04-03T00:08:12;-1.3;86.1
74484;SHT31;62942;52.462;10.846;2023-04-03T00:09:22;-1.3;86.1
74484;SHT31;62942;52.462;10.846;2023-04-03T00:10:22;-1.2;86.1
74484;SHT31;62942;52.462;10.846;2023-04-03T00:11:32;-1.3;86.1
74484;SHT31;62942;52.462;10.846;2023-04-03T00:12:32;-1.3;86.2
74484;SHT31;62942;52.462;10.846;2023-04-03T00:13:42;-1.3;86.2
74484;SHT31;62942;52.462;10.846;2023-04-03T00:14:52;-1.3;86.1
74484;SHT31;62942;52.462;10.846;2023-04-03T00:15:52;-1.3;86.2
74484;SHT31;62942;52.462;10.846;2023-04-03T00:17:02;-1.3;86.3
74484;SHT31;62942;52.462;10.846;2023-04-03T00:18:12;-1.3;86.2
74484;SHT31;62942;52.462;10.846;2023-04-03T00:19:22;-1.3;86.2
74484;SHT31;62942;52.462;10.846;2023-04-03T00:20:22;-1.3;86.3
74484;SHT31;62942;52.462;10.846;2023-04-03T00:21:32;-1.3;86.3
74484;SHT31;62942;52.462;10.846;2023-04-03T00:22:32;-1.3;86.2
74484;SHT31;62942;52.462;10.846;2023-04-03T00:23:42;-1.4;86
74484;SHT31;62942;52.462;10.846;2023-04-03T00:24:52;-1.4;86
74484;SHT31;62942;52.462;10.846;2023-04-03T00:25:52;-1.4;86.1
74484;SHT31;62942;52.462;10.846;2023-04-03T00:27:02;-1.4;86.2
74484;SHT31;62942;52.462;10.846;2023-04-03T00:28:12;-1.4;86.2
74484;SHT31;62942;52.462;10.846;2023-04-03T00:29:12;-1.4;86.3
74484;SHT31;62942;52.462;10.846;2023-04-03T00:30:22;-1.4;86.4
74484;SHT31;62942;52.462;10.846;2023-04-03T00:31:22;-1.4;86.5
74484;SHT31;62942;52.462;10.846;2023-04-03T00:32:32;-1.4;86.6
74484;SHT31;62942;52.462;10.846;2023-04-03T00:33:32;-1.4;86.6
74484;SHT31;62942;52.462;10.846;2023-04-03T00:34:42;-1.4;86.6
74484;SHT31;62942;52.462;10.846;2023-04-03T00:35:52;-1.4;86.5
74484;SHT31;62942;52.462;10.846;2023-04-03T00:36:52;-1.3;86.5
74484;SHT31;62942;52.462;10.846;2023-04-03T00:38:02;-1.4;86.5
74484;SHT31;62942;52.462;10.846;2023-04-03T00:39:12;-1.4;86.3
74484;SHT31;62942;52.462;10.846;2023-04-03T00:40:12;-1.4;86.2
74484;SHT31;62942;52.462;10.846;2023-04-03T00:41:22;-1.4;86.3
74484;SHT31;62942;52.462;10.846;2023-04-03T00:42:31;-1.5;86.5
74484;SHT31;62942;52.462;10.846;2023-04-03T00:43:32;-1.5;86.6
74484;SHT31;62942;52.462;10.846;2023-04-03T00:45:47;-1.5;86.6
74484;SHT31;62942;52.462;10.846;2023-04-03T00:45:52;-1.5;86.6
74484;SHT31;62942;52.462;10.846;2023-04-03T00:46:52;-1.5;86.5
74484;SHT31;62942;52.462;10.846;2023-04-03T00:48:02;-1.6;86.4
74484;SHT31;62942;52.462;10.846;2023-04-03T00:49:12;-1.6;86.5
74484;SHT31;62942;52.462;10.846;2023-04-03T00:50:12;-1.7;86.5
74484;SHT31;62942;52.462;10.846;2023-04-03T00:51:22;-1.7;86.6
74484;SHT31;62942;52.462;10.846;2023-04-03T00:52:31;-1.8;86.7
74484;SHT31;62942;52.462;10.846;2023-04-03T00:53:43;-1.8;86.9
74484;SHT31;62942;52.462;10.846;2023-04-03T00:54:52;-1.8;87
74484;SHT31;62942;52.462;10.846;2023-04-03T00:55:52;-1.8;87
74484;SHT31;62942;52.462;10.846;2023-04-03T00:57:02;-1.8;87.1
74484;SHT31;62942;52.462;10.846;2023-04-03T00:58:12;-1.9;87.4
74484;SHT31;62942;52.462;10.846;2023-04-03T00:59:23;-1.9;87.5
74484;SHT31;62942;52.462;10.846;2023-04-03T01:00:32;-1.8;87.7
74484;SHT31;62942;52.462;10.846;2023-04-03T01:01:32;-1.8;87.8
74484;SHT31;62942;52.462;10.846;2023-04-03T01:02:41;-1.9;87.8
74484;SHT31;62942;52.462;10.846;2023-04-03T01:03:42;-1.9;87.8
74484;SHT31;62942;52.462;10.846;2023-04-03T01:04:51;-1.9;87.7
74484;SHT31;62942;52.462;10.846;2023-04-03T01:05:52;-1.9;87.7
74484;SHT31;62942;52.462;10.846;2023-04-03T01:07:02;-1.9;87.7
74484;SHT31;62942;52.462;10.846;2023-04-03T01:08:02;-1.9;87.8
74484;SHT31;62942;52.462;10.846;2023-04-03T01:09:12;-1.9;87.9
74484;SHT31;62942;52.462;10.846;2023-04-03T01:10:12;-1.9;87.9
74484;SHT31;62942;52.462;10.846;2023-04-03T01:11:22;-1.9;88
74484;SHT31;62942;52.462;10.846;2023-04-03T01:12:23;-1.9;88
74484;SHT31;62942;52.462;10.846;2023-04-03T01:13:32;-1.9;88.2
74484;SHT31;62942;52.462;10.846;2023-04-03T01:14:31;-1.9;88.2
74484;SHT31;62942;52.462;10.846;2023-04-03T01:15:41;-1.9;88.2
74484;SHT31;62942;52.462;10.846;2023-04-03T01:16:41;-1.9;88.3
74484;SHT31;62942;52.462;10.846;2023-04-03T01:17:42;-2;88.3
74484;SHT31;62942;52.462;10.846;2023-04-03T01:18:51;-2;88.3
74484;SHT31;62942;52.462;10.846;2023-04-03T01:21:13;-2;88.1
74484;SHT31;62942;52.462;10.846;2023-04-03T01:22:15;-2;88.1
74484;SHT31;62942;52.462;10.846;2023-04-03T01:23:29;-2;88.3
74484;SHT31;62942;52.462;10.846;2023-04-03T01:24:26;-2;88.4
74484;SHT31;62942;52.462;10.846;2023-04-03T01:25:21;-2;88.5
74484;SHT31;62942;52.462;10.846;2023-04-03T01:26:32;-2;88.5
74484;SHT31;62942;52.462;10.846;2023-04-03T01:27:41;-2;88.8
74484;SHT31;62942;52.462;10.846;2023-04-03T01:28:42;-2;88.8
74484;SHT31;62942;52.462;10.846;2023-04-03T01:29:51;-2;88.8
74484;SHT31;62942;52.462;10.846;2023-04-03T01:30:53;-2;88.8
74484;SHT31;62942;52.462;10.846;2023-04-03T01:32:02;-2;88.7
74484;SHT31;62942;52.462;10.846;2023-04-03T01:33:01;-2;88.7
74484;SHT31;62942;52.462;10.846;2023-04-03T01:34:11;-2.1;88.6
74484;SHT31;62942;52.462;10.846;2023-04-03T01:35:12;-2.1;88.6
74484;SHT31;62942;52.462;10.846;2023-04-03T01:36:22;-2.1;88.7
74484;SHT31;62942;52.462;10.846;2023-04-03T01:37:21;-2.1;88.7
74484;SHT31;62942;52.462;10.846;2023-04-03T01:38:31;-2.1;88.8
74484;SHT31;62942;52.462;10.846;2023-04-03T01:39:41;-2.1;88.7
74484;SHT31;62942;52.462;10.846;2023-04-03T01:40:41;-2.2;89.1
74484;SHT31;62942;52.462;10.846;2023-04-03T01:41:51;-2.2;88.9
74484;SHT31;62942;52.462;10.846;2023-04-03T01:43:01;-2.2;89
74484;SHT31;62942;52.462;10.846;2023-04-03T01:44:02;-2.2;89.1
74484;SHT31;62942;52.462;10.846;2023-04-03T01:45:12;-2.2;89.1
74484;SHT31;62942;52.462;10.846;2023-04-03T01:46:21;-2.2;89.2
74484;SHT31;62942;52.462;10.846;2023-04-03T01:47:22;-2.2;89.2
74484;SHT31;62942;52.462;10.846;2023-04-03T01:48:31;-2.2;89.3
74484;SHT31;62942;52.462;10.846;2023-04-03T01:49:41;-2.2;89.5
74484;SHT31;62942;52.462;10.846;2023-04-03T01:50:51;-2.2;89.6
74484;SHT31;62942;52.462;10.846;2023-04-03T01:51:51;-2.2;89.6
74484;SHT31;62942;52.462;10.846;2023-04-03T01:53:01;-2.2;89.6
74484;SHT31;62942;52.462;10.846;2023-04-03T01:54:01;-2.2;89.6
74484;SHT31;62942;52.462;10.846;2023-04-03T01:55:11;-2.2;89.6
74484;SHT31;62942;52.462;10.846;2023-04-03T01:56:11;-2.2;89.6
74484;SHT31;62942;52.462;10.846;2023-04-03T01:57:21;-2.2;89.7
74484;SHT31;62942;52.462;10.846;2023-04-03T01:58:21;-2.2;89.7
74484;SHT31;62942;52.462;10.846;2023-04-03T01:59:31;-2.2;89.7
74484;SHT31;62942;52.462;10.846;2023-04-03T02:00:31;-2.1;89.7
74484;SHT31;62942;52.462;10.846;2023-04-03T02:01:41;-2.2;89.8
74484;SHT31;62942;52.462;10.846;2023-04-03T02:02:41;-2.1;89.8
74484;SHT31;62942;52.462;10.846;2023-04-03T02:03:51;-2.1;89.6
74484;SHT31;62942;52.462;10.846;2023-04-03T02:04:51;-2.2;89.5
74484;SHT31;62942;52.462;10.846;2023-04-03T02:06:02;-2.2;89.5
74484;SHT31;62942;52.462;10.846;2023-04-03T02:07:01;-2.2;89.4
74484;SHT31;62942;52.462;10.846;2023-04-03T02:08:12;-2.2;89.4
74484;SHT31;62942;52.462;10.846;2023-04-03T02:09:11;-2.2;89.4
74484;SHT31;62942;52.462;10.846;2023-04-03T02:10:21;-2.2;89.5
74484;SHT31;62942;52.462;10.846;2023-04-03T02:11:31;-2.2;89.6
74484;SHT31;62942;52.462;10.846;2023-04-03T02:12:31;-2.2;89.7
74484;SHT31;62942;52.462;10.846;2023-04-03T02:13:41;-2.2;89.8
74484;SHT31;62942;52.462;10.846;2023-04-03T02:14:41;-2.2;89.8
74484;SHT31;62942;52.462;10.846;2023-04-03T02:15:51;-2.2;89.8
74484;SHT31;62942;52.462;10.846;2023-04-03T02:16:51;-2.2;89.9
74484;SHT31;62942;52.462;10.846;2023-04-03T02:18:01;-2.2;90
74484;SHT31;62942;52.462;10.846;2023-04-03T02:19:11;-2.2;90
74484;SHT31;62942;52.462;10.846;2023-04-03T02:20:11;-2.2;90
74484;SHT31;62942;52.462;10.846;2023-04-03T02:21:21;-2.1;90.1
74484;SHT31;62942;52.462;10.846;2023-04-03T02:22:31;-2.1;90.1
74484;SHT31;62942;52.462;10.846;2023-04-03T02:23:41;-2.1;90.1
74484;SHT31;62942;52.462;10.846;2023-04-03T02:24:51;-2.1;90.1
74484;SHT31;62942;52.462;10.846;2023-04-03T02:25:51;-2.1;90.1
74484;SHT31;62942;52.462;10.846;2023-04-03T02:27:01;-2.1;90.1
74484;SHT31;62942;52.462;10.846;2023-04-03T02:28:11;-2.1;90
74484;SHT31;62942;52.462;10.846;2023-04-03T02:29:11;-2.1;90
74484;SHT31;62942;52.462;10.846;2023-04-03T02:30:21;-2.1;89.9
74484;SHT31;62942;52.462;10.846;2023-04-03T02:31:21;-2.1;90
74484;SHT31;62942;52.462;10.846;2023-04-03T02:32:32;-2.1;89.8
74484;SHT31;62942;52.462;10.846;2023-04-03T02:33:41;-2.2;89.7
74484;SHT31;62942;52.462;10.846;2023-04-03T02:34:41;-2.2;89.6
74484;SHT31;62942;52.462;10.846;2023-04-03T02:35:52;-2.2;89.5
74484;SHT31;62942;52.462;10.846;2023-04-03T02:36:51;-2.2;89.5
74484;SHT31;62942;52.462;10.846;2023-04-03T02:38:01;-2.2;89.6
74484;SHT31;62942;52.462;10.846;2023-04-03T02:39:02;-2.3;89.6
74484;SHT31;62942;52.462;10.846;2023-04-03T02:40:02;-2.3;89.7
74484;SHT31;62942;52.462;10.846;2023-04-03T02:41:12;-2.2;89.9
74484;SHT31;62942;52.462;10.846;2023-04-03T02:42:21;-2.2;90
74484;SHT31;62942;52.462;10.846;2023-04-03T02:43:31;-2.3;90
74484;SHT31;62942;52.462;10.846;2023-04-03T02:44:31;-2.2;90.1
74484;SHT31;62942;52.462;10.846;2023-04-03T02:45:41;-2.2;90.1
74484;SHT31;62942;52.462;10.846;2023-04-03T02:46:41;-2.2;90.1
74484;SHT31;62942;52.462;10.846;2023-04-03T02:47:51;-2.3;90.1
74484;SHT31;62942;52.462;10.846;2023-04-03T02:49:02;-2.3;90
74484;SHT31;62942;52.462;10.846;2023-04-03T02:50:11;-2.3;90
74484;SHT31;62942;52.462;10.846;2023-04-03T02:51:11;-2.3;90.1
74484;SHT31;62942;52.462;10.846;2023-04-03T02:52:21;-2.3;90.1
74484;SHT31;62942;52.462;10.846;2023-04-03T02:53:21;-2.3;90.1
74484;SHT31;62942;52.462;10.846;2023-04-03T02:54:31;-2.3;90.1
74484;SHT31;62942;52.462;10.846;2023-04-03T02:55:41;-2.3;90.3
74484;SHT31;62942;52.462;10.846;2023-04-03T02:56:41;-2.2;90.3
74484;SHT31;62942;52.462;10.846;2023-04-03T02:57:51;-2.2;90.4
74484;SHT31;62942;52.462;10.846;2023-04-03T02:59:01;-2.2;90.4
74484;SHT31;62942;52.462;10.846;2023-04-03T03:00:02;-2.2;90.4
74484;SHT31;62942;52.462;10.846;2023-04-03T03:01:11;-2.2;90.5
74484;SHT31;62942;52.462;10.846;2023-04-03T03:02:11;-2.2;90.5
74484;SHT31;62942;52.462;10.846;2023-04-03T03:03:21;-2.2;90.4
74484;SHT31;62942;52.462;10.846;2023-04-03T03:04:31;-2.2;90.4
74484;SHT31;62942;52.462;10.846;2023-04-03T03:05:31;-2.2;90.4
74484;SHT31;62942;52.462;10.846;2023-04-03T03:06:41;-2.2;90.4
74484;SHT31;62942;52.462;10.846;2023-04-03T03:07:51;-2.2;90.3
74484;SHT31;62942;52.462;10.846;2023-04-03T03:09:01;-2.2;90.2
74484;SHT31;62942;52.462;10.846;2023-04-03T03:10:01;-2.2;90.1
74484;SHT31;62942;52.462;10.846;2023-04-03T03:11:11;-2.3;89.9
74484;SHT31;62942;52.462;10.846;2023-04-03T03:12:11;-2.3;89.8
74484;SHT31;62942;52.462;10.846;2023-04-03T03:13:11;-2.3;89.8
74484;SHT31;62942;52.462;10.846;2023-04-03T03:14:21;-2.4;89.8
74484;SHT31;62942;52.462;10.846;2023-04-03T03:15:21;-2.4;89.8
74484;SHT31;62942;52.462;10.846;2023-04-03T03:16:21;-2.4;89.8
74484;SHT31;62942;52.462;10.846;2023-04-03T03:17:31;-2.4;89.8
74484;SHT31;62942;52.462;10.846;2023-04-03T03:18:41;-2.4;89.9
74484;SHT31;62942;52.462;10.846;2023-04-03T03:19:41;-2.5;89.9
74484;SHT31;62942;52.462;10.846;2023-04-03T03:20:41;-2.5;90
74484;SHT31;62942;52.462;10.846;2023-04-03T03:21:51;-2.5;90.1
74484;SHT31;62942;52.462;10.846;2023-04-03T03:23:01;-2.5;90.2
74484;SHT31;62942;52.462;10.846;2023-04-03T03:24:01;-2.5;90.2
74484;SHT31;62942;52.462;10.846;2023-04-03T03:25:01;-2.5;90.3
74484;SHT31;62942;52.462;10.846;2023-04-03T03:26:02;-2.5;90.3
74484;SHT31;62942;52.462;10.846;2023-04-03T03:27:11;-2.5;90.3
74484;SHT31;62942;52.462;10.846;2023-04-03T03:28:11;-2.6;90.3
74484;SHT31;62942;52.462;10.846;2023-04-03T03:29:21;-2.6;90.3
74484;SHT31;62942;52.462;10.846;2023-04-03T03:30:21;-2.6;90.3
74484;SHT31;62942;52.462;10.846;2023-04-03T03:31:31;-2.6;90.4
74484;SHT31;62942;52.462;10.846;2023-04-03T03:32:31;-2.5;90.7
74484;SHT31;62942;52.462;10.846;2023-04-03T03:33:41;-2.5;90.9
74484;SHT31;62942;52.462;10.846;2023-04-03T03:34:51;-2.5;91
74484;SHT31;62942;52.462;10.846;2023-04-03T03:35:51;-2.5;91.1
74484;SHT31;62942;52.462;10.846;2023-04-03T03:36:51;-2.4;91.2
74484;SHT31;62942;52.462;10.846;2023-04-03T03:38:01;-2.4;91.3
74484;SHT31;62942;52.462;10.846;2023-04-03T03:39:01;-2.5;91.3
74484;SHT31;62942;52.462;10.846;2023-04-03T03:40:11;-2.5;91.2
74484;SHT31;62942;52.462;10.846;2023-04-03T03:41:21;-2.5;91
74484;SHT31;62942;52.462;10.846;2023-04-03T03:42:21;-2.5;90.9
74484;SHT31;62942;52.462;10.846;2023-04-03T03:43:21;-2.5;90.8
74484;SHT31;62942;52.462;10.846;2023-04-03T03:44:31;-2.5;90.7
74484;SHT31;62942;52.462;10.846;2023-04-03T03:45:31;-2.5;90.7
74484;SHT31;62942;52.462;10.846;2023-04-03T03:46:31;-2.6;90.7
74484;SHT31;62942;52.462;10.846;2023-04-03T03:47:41;-2.6;90.7
74484;SHT31;62942;52.462;10.846;2023-04-03T03:48:51;-2.6;90.9
74484;SHT31;62942;52.462;10.846;2023-04-03T03:49:51;-2.6;90.8
74484;SHT31;62942;52.462;10.846;2023-04-03T03:51:01;-2.5;90.9
74484;SHT31;62942;52.462;10.846;2023-04-03T03:52:01;-2.5;91
74484;SHT31;62942;52.462;10.846;2023-04-03T03:53:11;-2.5;91.1
74484;SHT31;62942;52.462;10.846;2023-04-03T03:54:11;-2.5;91.2
74484;SHT31;62942;52.462;10.846;2023-04-03T03:55:11;-2.5;91.3
74484;SHT31;62942;52.462;10.846;2023-04-03T03:56:21;-2.5;91.4
74484;SHT31;62942;52.462;10.846;2023-04-03T03:57:31;-2.6;91.3
74484;SHT31;62942;52.462;10.846;2023-04-03T03:58:41;-2.6;91.2
74484;SHT31;62942;52.462;10.846;2023-04-03T03:59:51;-2.6;91.1
74484;SHT31;62942;52.462;10.846;2023-04-03T04:00:51;-2.6;91.1
74484;SHT31;62942;52.462;10.846;2023-04-03T04:02:01;-2.6;91.2
74484;SHT31;62942;52.462;10.846;2023-04-03T04:03:01;-2.6;91.2
74484;SHT31;62942;52.462;10.846;2023-04-03T04:04:11;-2.6;91.3
74484;SHT31;62942;52.462;10.846;2023-04-03T04:05:11;-2.6;91.4
74484;SHT31;62942;52.462;10.846;2023-04-03T04:06:11;-2.6;91.4
74484;SHT31;62942;52.462;10.846;2023-04-03T04:07:21;-2.6;91.4
74484;SHT31;62942;52.462;10.846;2023-04-03T04:08:21;-2.6;91.4
74484;SHT31;62942;52.462;10.846;2023-04-03T04:09:31;-2.7;91.4
74484;SHT31;62942;52.462;10.846;2023-04-03T04:10:31;-2.7;91.3
74484;SHT31;62942;52.462;10.846;2023-04-03T04:11:31;-2.7;91.3
74484;SHT31;62942;52.462;10.846;2023-04-03T04:12:41;-2.7;91.3
74484;SHT31;62942;52.462;10.846;2023-04-03T04:13:41;-2.7;91.3
74484;SHT31;62942;52.462;10.846;2023-04-03T04:14:41;-2.7;91.4
74484;SHT31;62942;52.462;10.846;2023-04-03T04:15:41;-2.7;91.5
74484;SHT31;62942;52.462;10.846;2023-04-03T04:16:51;-2.7;91.7
74484;SHT31;62942;52.462;10.846;2023-04-03T04:17:51;-2.7;91.6
74484;SHT31;62942;52.462;10.846;2023-04-03T04:18:51;-2.7;91.6
74484;SHT31;62942;52.462;10.846;2023-04-03T04:20:01;-2.7;91.5
74484;SHT31;62942;52.462;10.846;2023-04-03T04:21:11;-2.8;91.4
74484;SHT31;62942;52.462;10.846;2023-04-03T04:22:21;-2.8;91.4
74484;SHT31;62942;52.462;10.846;2023-04-03T04:23:21;-2.8;91.4
74484;SHT31;62942;52.462;10.846;2023-04-03T04:24:21;-2.7;91.5
74484;SHT31;62942;52.462;10.846;2023-04-03T04:25:21;-2.8;91.6
74484;SHT31;62942;52.462;10.846;2023-04-03T04:26:31;-2.7;91.7
74484;SHT31;62942;52.462;10.846;2023-04-03T04:27:31;-2.8;91.8
74484;SHT31;62942;52.462;10.846;2023-04-03T04:28:31;-2.8;91.7
74484;SHT31;62942;52.462;10.846;2023-04-03T04:29:31;-2.8;91.8
74484;SHT31;62942;52.462;10.846;2023-04-03T04:30:41;-2.8;91.8
74484;SHT31;62942;52.462;10.846;2023-04-03T04:31:51;-2.8;91.8
74484;SHT31;62942;52.462;10.846;2023-04-03T04:33:01;-2.8;91.8
74484;SHT31;62942;52.462;10.846;2023-04-03T04:34:01;-2.8;91.8
74484;SHT31;62942;52.462;10.846;2023-04-03T04:35:01;-2.8;91.8
74484;SHT31;62942;52.462;10.846;2023-04-03T04:36:11;-2.8;91.9
74484;SHT31;62942;52.462;10.846;2023-04-03T04:37:21;-2.8;91.9
74484;SHT31;62942;52.462;10.846;2023-04-03T04:38:31;-2.8;92
74484;SHT31;62942;52.462;10.846;2023-04-03T04:39:31;-2.8;92.1
74484;SHT31;62942;52.462;10.846;2023-04-03T04:40:31;-2.8;92.1
74484;SHT31;62942;52.462;10.846;2023-04-03T04:41:31;-2.8;92.1
74484;SHT31;62942;52.462;10.846;2023-04-03T04:42:41;-2.8;92.1
74484;SHT31;62942;52.462;10.846;2023-04-03T04:43:51;-2.8;92.1
74484;SHT31;62942;52.462;10.846;2023-04-03T04:44:51;-2.8;92.2
74484;SHT31;62942;52.462;10.846;2023-04-03T04:46:02;-2.8;92.2
74484;SHT31;62942;52.462;10.846;2023-04-03T04:47:11;-2.8;92.2
74484;SHT31;62942;52.462;10.846;2023-04-03T04:48:11;-2.8;92.3
74484;SHT31;62942;52.462;10.846;2023-04-03T04:49:11;-2.8;92.3
74484;SHT31;62942;52.462;10.846;2023-04-03T04:50:11;-2.8;92.3
74484;SHT31;62942;52.462;10.846;2023-04-03T04:51:21;-2.9;92.3
74484;SHT31;62942;52.462;10.846;2023-04-03T04:52:21;-2.9;92.3
74484;SHT31;62942;52.462;10.846;2023-04-03T04:53:31;-2.9;92.2
74484;SHT31;62942;52.462;10.846;2023-04-03T04:54:31;-2.9;92.1
74484;SHT31;62942;52.462;10.846;2023-04-03T04:55:31;-2.9;92.1
74484;SHT31;62942;52.462;10.846;2023-04-03T04:56:41;-2.9;92.1
74484;SHT31;62942;52.462;10.846;2023-04-03T04:57:41;-2.9;92.1
74484;SHT31;62942;52.462;10.846;2023-04-03T04:58:51;-2.9;92.2
74484;SHT31;62942;52.462;10.846;2023-04-03T04:59:51;-2.9;92.1
74484;SHT31;62942;52.462;10.846;2023-04-03T05:00:57;-2.9;92.1
74484;SHT31;62942;52.462;10.846;2023-04-03T05:02:01;-2.9;92.2
74484;SHT31;62942;52.462;10.846;2023-04-03T05:03:01;-2.9;92.2
74484;SHT31;62942;52.462;10.846;2023-04-03T05:04:01;-2.9;92.2
74484;SHT31;62942;52.462;10.846;2023-04-03T05:05:01;-2.9;92.3
74484;SHT31;62942;52.462;10.846;2023-04-03T05:06:11;-2.9;92.4
74484;SHT31;62942;52.462;10.846;2023-04-03T05:07:21;-2.9;92.5
74484;SHT31;62942;52.462;10.846;2023-04-03T05:08:21;-2.9;92.5
74484;SHT31;62942;52.462;10.846;2023-04-03T05:09:31;-2.8;92.6
74484;SHT31;62942;52.462;10.846;2023-04-03T05:10:41;-2.8;92.6
74484;SHT31;62942;52.462;10.846;2023-04-03T05:11:51;-2.8;92.7
74484;SHT31;62942;52.462;10.846;2023-04-03T05:13:01;-2.8;92.7
74484;SHT31;62942;52.462;10.846;2023-04-03T05:14:11;-2.8;92.8
74484;SHT31;62942;52.462;10.846;2023-04-03T05:15:21;-2.7;92.8
74484;SHT31;62942;52.462;10.846;2023-04-03T05:16:31;-2.8;92.8
74484;SHT31;62942;52.462;10.846;2023-04-03T05:17:31;-2.7;92.8
74484;SHT31;62942;52.462;10.846;2023-04-03T05:18:41;-2.7;92.8
74484;SHT31;62942;52.462;10.846;2023-04-03T05:19:51;-2.7;92.9
74484;SHT31;62942;52.462;10.846;2023-04-03T05:20:51;-2.7;92.8
74484;SHT31;62942;52.462;10.846;2023-04-03T05:22:02;-2.7;92.9
74484;SHT31;62942;52.462;10.846;2023-04-03T05:23:01;-2.6;92.9
74484;SHT31;62942;52.462;10.846;2023-04-03T05:24:01;-2.6;92.9
74484;SHT31;62942;52.462;10.846;2023-04-03T05:25:01;-2.6;92.9
74484;SHT31;62942;52.462;10.846;2023-04-03T05:26:11;-2.5;92.9
74484;SHT31;62942;52.462;10.846;2023-04-03T05:27:11;-2.5;92.9
74484;SHT31;62942;52.462;10.846;2023-04-03T05:28:11;-2.5;93
74484;SHT31;62942;52.462;10.846;2023-04-03T05:29:11;-2.4;93
74484;SHT31;62942;52.462;10.846;2023-04-03T05:30:21;-2.4;93
74484;SHT31;62942;52.462;10.846;2023-04-03T05:31:31;-2.4;93
74484;SHT31;62942;52.462;10.846;2023-04-03T05:32:31;-2.4;93
74484;SHT31;62942;52.462;10.846;2023-04-03T05:33:41;-2.3;93
74484;SHT31;62942;52.462;10.846;2023-04-03T05:34:51;-2.3;93
74484;SHT31;62942;52.462;10.846;2023-04-03T05:36:02;-2.3;93
74484;SHT31;62942;52.462;10.846;2023-04-03T05:37:01;-2.2;92.9
74484;SHT31;62942;52.462;10.846;2023-04-03T05:38:11;-2.2;92.9
74484;SHT31;62942;52.462;10.846;2023-04-03T05:39:11;-2.2;92.9
74484;SHT31;62942;52.462;10.846;2023-04-03T05:40:11;-2.1;92.9
74484;SHT31;62942;52.462;10.846;2023-04-03T05:41:21;-2.1;92.9
74484;SHT31;62942;52.462;10.846;2023-04-03T05:42:21;-2.1;92.9
74484;SHT31;62942;52.462;10.846;2023-04-03T05:43:21;-2;92.9
74484;SHT31;62942;52.462;10.846;2023-04-03T05:44:31;-1.9;92.8
74484;SHT31;62942;52.462;10.846;2023-04-03T05:45:31;-1.9;92.8
74484;SHT31;62942;52.462;10.846;2023-04-03T05:46:31;-1.8;92.8
74484;SHT31;62942;52.462;10.846;2023-04-03T05:47:41;-1.6;92.8
74484;SHT31;62942;52.462;10.846;2023-04-03T05:48:41;-1.5;92.7
74484;SHT31;62942;52.462;10.846;2023-04-03T05:49:41;-1.3;92.7
74484;SHT31;62942;52.462;10.846;2023-04-03T05:50:51;-1.1;92.5
74484;SHT31;62942;52.462;10.846;2023-04-03T05:51:51;-0.9;92.3
74484;SHT31;62942;52.462;10.846;2023-04-03T05:53:01;-0.7;91.9
74484;SHT31;62942;52.462;10.846;2023-04-03T05:54:03;-0.5;91.5
74484;SHT31;62942;52.462;10.846;2023-04-03T05:55:11;-0.3;90.9
74484;SHT31;62942;52.462;10.846;2023-04-03T05:56:21;-0.1;90.1
74484;SHT31;62942;52.462;10.846;2023-04-03T05:57:21;0.1;89.4
74484;SHT31;62942;52.462;10.846;2023-04-03T05:58:31;0.3;88.5
74484;SHT31;62942;52.462;10.846;2023-04-03T05:59:41;0.5;87.6
74484;SHT31;62942;52.462;10.846;2023-04-03T06:00:41;0.6;86.8
74484;SHT31;62942;52.462;10.846;2023-04-03T06:01:51;0.8;86.1
74484;SHT31;62942;52.462;10.846;2023-04-03T06:02:51;1;85
74484;SHT31;62942;52.462;10.846;2023-04-03T06:04:01;1.1;84.5
74484;SHT31;62942;52.462;10.846;2023-04-03T06:05:11;1.3;84
74484;SHT31;62942;52.462;10.846;2023-04-03T06:06:21;1.4;83.3
74484;SHT31;62942;52.462;10.846;2023-04-03T06:07:31;1.7;82.6
74484;SHT31;62942;52.462;10.846;2023-04-03T06:08:41;1.8;81.8
74484;SHT31;62942;52.462;10.846;2023-04-03T06:09:51;2;81.2
74484;SHT31;62942;52.462;10.846;2023-04-03T06:11:01;2.1;80.5
74484;SHT31;62942;52.462;10.846;2023-04-03T06:12:11;2.2;80
74484;SHT31;62942;52.462;10.846;2023-04-03T06:13:21;2.4;78.8
74484;SHT31;62942;52.462;10.846;2023-04-03T06:14:31;2.5;78.8
74484;SHT31;62942;52.462;10.846;2023-04-03T06:15:41;2.6;78.2
74484;SHT31;62942;52.462;10.846;2023-04-03T06:16:51;2.7;77.3
74484;SHT31;62942;52.462;10.846;2023-04-03T06:18:01;2.8;76.9
74484;SHT31;62942;52.462;10.846;2023-04-03T06:19:01;3;76.1
74484;SHT31;62942;52.462;10.846;2023-04-03T06:20:11;3;75.2
74484;SHT31;62942;52.462;10.846;2023-04-03T06:21:21;3.1;75.3
74484;SHT31;62942;52.462;10.846;2023-04-03T06:22:31;3.2;74.8
74484;SHT31;62942;52.462;10.846;2023-04-03T06:23:31;3.3;74.3
74484;SHT31;62942;52.462;10.846;2023-04-03T06:24:41;3.4;73.7
74484;SHT31;62942;52.462;10.846;2023-04-03T06:25:51;3.5;73.3
74484;SHT31;62942;52.462;10.846;2023-04-03T06:27:01;3.6;72.9
74484;SHT31;62942;52.462;10.846;2023-04-03T06:28:01;3.7;72
74484;SHT31;62942;52.462;10.846;2023-04-03T06:29:11;3.8;72
74484;SHT31;62942;52.462;10.846;2023-04-03T06:30:21;3.8;71.9
74484;SHT31;62942;52.462;10.846;2023-04-03T06:31:31;3.9;71.7
74484;SHT31;62942;52.462;10.846;2023-04-03T06:32:41;4;71.6
74484;SHT31;62942;52.462;10.846;2023-04-03T06:33:51;4.2;71.6
74484;SHT31;62942;52.462;10.846;2023-04-03T06:34:51;4.3;70.8
74484;SHT31;62942;52.462;10.846;2023-04-03T06:35:55;4.4;70.1
74484;SHT31;62942;52.462;10.846;2023-04-03T06:37:01;4.4;69.8
74484;SHT31;62942;52.462;10.846;2023-04-03T06:38:11;4.5;69.6
74484;SHT31;62942;52.462;10.846;2023-04-03T06:39:21;4.6;69.2
74484;SHT31;62942;52.462;10.846;2023-04-03T06:40:31;4.7;68.8
74484;SHT31;62942;52.462;10.846;2023-04-03T06:41:41;4.7;68.2
74484;SHT31;62942;52.462;10.846;2023-04-03T06:42:51;4.8;68
74484;SHT31;62942;52.462;10.846;2023-04-03T06:43:51;4.9;67.9
74484;SHT31;62942;52.462;10.846;2023-04-03T06:45:01;4.9;67.7
74484;SHT31;62942;52.462;10.846;2023-04-03T06:46:13;4.9;67.8
74484;SHT31;62942;52.462;10.846;2023-04-03T06:47:11;5;67.5
74484;SHT31;62942;52.462;10.846;2023-04-03T06:48:21;5.1;67.3
74484;SHT31;62942;52.462;10.846;2023-04-03T06:49:31;5.2;66.6
74484;SHT31;62942;52.462;10.846;2023-04-03T06:50:41;5.1;66.4
74484;SHT31;62942;52.462;10.846;2023-04-03T06:51:41;5.1;66.5
74484;SHT31;62942;52.462;10.846;2023-04-03T06:52:51;5.2;66.1
74484;SHT31;62942;52.462;10.846;2023-04-03T06:53:51;5.2;66.3
74484;SHT31;62942;52.462;10.846;2023-04-03T06:54:51;5.2;66.3
74484;SHT31;62942;52.462;10.846;2023-04-03T06:56:01;5.3;65.8
74484;SHT31;62942;52.462;10.846;2023-04-03T06:57:11;5.4;66
74484;SHT31;62942;52.462;10.846;2023-04-03T06:58:11;5.4;65.8
74484;SHT31;62942;52.462;10.846;2023-04-03T06:59:11;5.5;65.8
74484;SHT31;62942;52.462;10.846;2023-04-03T07:00:11;5.4;65
74484;SHT31;62942;52.462;10.846;2023-04-03T07:01:12;5.5;65.4
74484;SHT31;62942;52.462;10.846;2023-04-03T07:02:11;5.6;65.5
74484;SHT31;62942;52.462;10.846;2023-04-03T07:03:21;5.6;65.1
74484;SHT31;62942;52.462;10.846;2023-04-03T07:04:21;5.7;64.9
74484;SHT31;62942;52.462;10.846;2023-04-03T07:05:21;5.8;65